Time,TemperatureF,DewpointF,PressureIn,WindDirection,WindDirectionDegrees,WindSpeedMPH,WindSpeedGustMPH,Humidity,HourlyPrecipIn,Conditions,Clouds,dailyrainin,SoftwareType,DateUTC
2013-05-27 00:00:00,54.4,51.5,30.18,NNE,23,1.1,1.1,90,0.00,,,0.00,WUHU216HW,2013-05-27 07:00:00,
2013-05-27 00:05:00,54.4,51.5,30.18,NNE,23,1.1,1.1,90,0.00,,,0.00,WUHU216HW,2013-05-27 07:05:00,
2013-05-27 00:10:00,54.4,51.8,30.18,ENE,68,0.0,1.6,91,0.00,,,0.00,WUHU216HW,2013-05-27 07:10:00,
2013-05-27 00:15:00,54.4,51.8,30.18,ENE,68,1.6,1.8,91,0.00,,,0.00,WUHU216HW,2013-05-27 07:15:00,
2013-05-27 00:20:00,54.4,51.8,30.18,East,90,1.8,3.1,91,0.00,,,0.00,WUHU216HW,2013-05-27 07:20:00,
2013-05-27 00:25:00,54.5,51.7,30.17,SE,135,2.5,3.4,90,0.00,,,0.00,WUHU216HW,2013-05-27 07:25:00,
2013-05-27 00:30:00,54.9,51.7,30.18,SE,135,2.0,5.1,89,0.00,,,0.00,WUHU216HW,2013-05-27 07:30:00,
2013-05-27 00:35:00,55.1,51.8,30.17,SE,135,4.0,5.1,89,0.00,,,0.00,WUHU216HW,2013-05-27 07:35:00,
2013-05-27 00:40:00,55.1,51.8,30.17,SE,135,2.2,4.0,89,0.00,,,0.00,WUHU216HW,2013-05-27 07:40:00,
2013-05-27 00:45:00,55.1,51.6,30.17,East,90,3.6,3.8,88,0.00,,,0.00,WUHU216HW,2013-05-27 07:45:00,
2013-05-27 00:49:00,55.1,51.6,30.17,SE,135,2.5,4.3,88,0.00,,,0.00,WUHU216HW,2013-05-27 07:49:00,
2013-05-27 00:54:00,55.3,51.8,30.17,SE,135,1.8,4.3,88,0.00,,,0.00,WUHU216HW,2013-05-27 07:54:00,
2013-05-27 00:59:00,55.1,51.2,30.17,ESE,113,5.1,5.1,87,0.00,,,0.00,WUHU216HW,2013-05-27 07:59:00,
2013-05-27 01:04:00,55.3,51.4,30.17,ESE,113,0.4,5.1,87,0.00,,,0.00,WUHU216HW,2013-05-27 08:04:00,
2013-05-27 01:09:00,55.1,51.0,30.17,ESE,113,5.6,5.6,86,0.00,,,0.00,WUHU216HW,2013-05-27 08:09:00,
2013-05-27 01:14:00,55.1,51.0,30.17,SE,135,5.4,5.6,86,0.00,,,0.00,WUHU216HW,2013-05-27 08:14:00,
2013-05-27 01:19:00,54.9,50.8,30.17,SSE,158,1.3,5.4,86,0.00,,,0.00,WUHU216HW,2013-05-27 08:19:00,
2013-05-27 01:24:00,54.7,50.6,30.17,East,90,0.7,1.8,86,0.00,,,0.00,WUHU216HW,2013-05-27 08:24:00,
2013-05-27 01:29:00,54.5,50.4,30.17,SE,135,1.8,3.4,86,0.00,,,0.00,WUHU216HW,2013-05-27 08:29:00,
2013-05-27 01:34:00,54.5,50.4,30.17,SE,135,0.4,3.4,86,0.00,,,0.00,WUHU216HW,2013-05-27 08:34:00,
2013-05-27 01:39:00,54.4,50.2,30.17,SE,135,3.1,3.1,86,0.00,,,0.00,WUHU216HW,2013-05-27 08:39:00,
2013-05-27 01:44:00,54.4,50.2,30.17,SE,135,0.0,3.1,86,0.00,,,0.00,WUHU216HW,2013-05-27 08:44:00,
2013-05-27 01:49:00,54.0,49.9,30.17,SE,135,0.9,1.8,86,0.00,,,0.00,WUHU216HW,2013-05-27 08:49:00,
2013-05-27 01:54:00,53.6,49.5,30.17,SE,135,0.2,1.1,86,0.00,,,0.00,WUHU216HW,2013-05-27 08:54:00,
2013-05-27 01:59:00,53.3,49.5,30.17,NE,45,0.9,2.2,87,0.00,,,0.00,WUHU216HW,2013-05-27 08:59:00,
2013-05-27 02:04:00,52.9,49.2,30.16,East,90,1.1,2.2,87,0.00,,,0.00,WUHU216HW,2013-05-27 09:04:00,
2013-05-27 02:09:00,52.9,49.2,30.17,NE,45,0.4,1.6,87,0.00,,,0.00,WUHU216HW,2013-05-27 09:09:00,
2013-05-27 02:14:00,52.7,49.0,30.16,NE,45,0.0,1.6,87,0.00,,,0.00,WUHU216HW,2013-05-27 09:14:00,
2013-05-27 02:19:00,52.6,49.1,30.16,NE,45,0.0,1.1,88,0.00,,,0.00,WUHU216HW,2013-05-27 09:19:00,
2013-05-27 02:24:00,52.4,48.9,30.16,ENE,68,1.6,1.6,88,0.00,,,0.00,WUHU216HW,2013-05-27 09:24:00,
2013-05-27 02:29:00,52.2,48.7,30.16,East,90,2.5,2.5,88,0.00,,,0.00,WUHU216HW,2013-05-27 09:29:00,
2013-05-27 02:34:00,52.2,49.1,30.16,NE,45,3.1,3.1,89,0.00,,,0.00,WUHU216HW,2013-05-27 09:34:00,
2013-05-27 02:39:00,52.2,49.1,30.16,NNE,23,2.2,3.8,89,0.00,,,0.00,WUHU216HW,2013-05-27 09:39:00,
2013-05-27 02:44:00,52.2,49.1,30.16,ENE,68,1.8,3.8,89,0.00,,,0.00,WUHU216HW,2013-05-27 09:44:00,
2013-05-27 02:49:00,52.2,49.1,30.16,NE,45,1.8,3.4,89,0.00,,,0.00,WUHU216HW,2013-05-27 09:49:00,
2013-05-27 02:54:00,52.2,49.1,30.15,NNE,23,1.3,3.4,89,0.00,,,0.00,WUHU216HW,2013-05-27 09:54:00,
2013-05-27 02:59:00,52.4,49.2,30.15,SE,135,1.3,3.4,89,0.00,,,0.00,WUHU216HW,2013-05-27 09:59:00,
2013-05-27 03:04:00,52.6,49.4,30.15,NE,45,1.1,3.4,89,0.00,,,0.00,WUHU216HW,2013-05-27 10:04:00,
2013-05-27 03:09:00,52.7,49.6,30.15,ESE,113,2.2,2.5,89,0.00,,,0.00,WUHU216HW,2013-05-27 10:09:00,
2013-05-27 03:14:00,52.7,49.6,30.15,East,90,0.4,2.5,89,0.00,,,0.00,WUHU216HW,2013-05-27 10:14:00,
2013-05-27 03:19:00,52.6,49.4,30.14,ENE,68,1.1,1.6,89,0.00,,,0.00,WUHU216HW,2013-05-27 10:19:00,
2013-05-27 03:24:00,52.6,49.4,30.14,ENE,68,1.1,2.7,89,0.00,,,0.00,WUHU216HW,2013-05-27 10:24:00,
2013-05-27 03:29:00,52.6,49.4,30.14,East,90,0.2,2.7,89,0.00,,,0.00,WUHU216HW,2013-05-27 10:29:00,
2013-05-27 03:34:00,52.6,49.4,30.14,ESE,113,1.8,2.2,89,0.00,,,0.00,WUHU216HW,2013-05-27 10:34:00,
2013-05-27 03:39:00,52.6,49.4,30.14,SE,135,0.7,2.5,89,0.00,,,0.00,WUHU216HW,2013-05-27 10:39:00,
2013-05-27 03:44:00,52.6,49.4,30.14,ESE,113,1.8,3.4,89,0.00,,,0.00,WUHU216HW,2013-05-27 10:44:00,
2013-05-27 03:49:00,52.6,49.1,30.13,ENE,68,1.1,3.4,88,0.00,,,0.00,WUHU216HW,2013-05-27 10:49:00,
2013-05-27 03:54:00,52.6,49.1,30.14,East,90,2.2,2.9,88,0.00,,,0.00,WUHU216HW,2013-05-27 10:54:00,
2013-05-27 03:59:00,52.6,49.1,30.14,ESE,113,1.8,2.9,88,0.00,,,0.00,WUHU216HW,2013-05-27 10:59:00,
2013-05-27 04:04:00,52.4,48.9,30.13,East,90,2.0,3.1,88,0.00,,,0.00,WUHU216HW,2013-05-27 11:04:00,
2013-05-27 04:09:00,52.4,48.9,30.12,ENE,68,2.0,3.1,88,0.00,,,0.00,WUHU216HW,2013-05-27 11:09:00,
2013-05-27 04:14:00,52.2,48.7,30.12,NE,45,1.6,2.7,88,0.00,,,0.00,WUHU216HW,2013-05-27 11:14:00,
2013-05-27 04:19:00,52.2,48.7,30.12,ENE,68,0.7,2.5,88,0.00,,,0.00,WUHU216HW,2013-05-27 11:19:00,
2013-05-27 04:24:00,52.2,48.7,30.12,NE,45,1.6,3.1,88,0.00,,,0.00,WUHU216HW,2013-05-27 11:24:00,
2013-05-27 04:29:00,51.8,48.3,30.12,NNE,23,2.0,3.1,88,0.00,,,0.00,WUHU216HW,2013-05-27 11:29:00,
2013-05-27 04:34:00,51.8,48.7,30.12,ENE,68,2.5,2.5,89,0.00,,,0.00,WUHU216HW,2013-05-27 11:34:00,
2013-05-27 04:39:00,51.8,48.7,30.11,ENE,68,2.2,2.5,89,0.00,,,0.00,WUHU216HW,2013-05-27 11:39:00,
2013-05-27 04:44:00,51.8,48.7,30.11,East,90,3.1,3.6,89,0.00,,,0.00,WUHU216HW,2013-05-27 11:44:00,
2013-05-27 04:49:00,52.0,48.9,30.11,ESE,113,2.2,4.0,89,0.00,,,0.00,WUHU216HW,2013-05-27 11:49:00,
2013-05-27 04:54:00,52.2,49.1,30.11,NE,45,3.1,4.0,89,0.00,,,0.00,WUHU216HW,2013-05-27 11:54:00,
2013-05-27 04:59:00,52.2,49.1,30.11,East,90,2.0,5.4,89,0.00,,,0.00,WUHU216HW,2013-05-27 11:59:00,
2013-05-27 05:04:00,52.2,48.7,30.11,East,90,0.9,5.4,88,0.00,,,0.00,WUHU216HW,2013-05-27 12:04:00,
2013-05-27 05:09:00,52.0,48.5,30.10,ENE,68,3.6,3.8,88,0.00,,,0.00,WUHU216HW,2013-05-27 12:09:00,
2013-05-27 05:14:00,52.0,48.5,30.10,SE,135,1.1,4.7,88,0.00,,,0.00,WUHU216HW,2013-05-27 12:14:00,
2013-05-27 05:19:00,52.0,48.5,30.10,East,90,1.1,4.7,88,0.00,,,0.00,WUHU216HW,2013-05-27 12:19:00,
2013-05-27 05:24:00,51.8,48.3,30.10,NE,45,1.8,3.4,88,0.00,,,0.00,WUHU216HW,2013-05-27 12:24:00,
2013-05-27 05:29:00,51.7,48.2,30.10,NE,45,1.1,2.5,88,0.00,,,0.00,WUHU216HW,2013-05-27 12:29:00,
2013-05-27 05:34:00,51.7,48.5,30.09,ENE,68,3.6,3.6,89,0.00,,,0.00,WUHU216HW,2013-05-27 12:34:00,
2013-05-27 05:39:00,51.7,48.5,30.09,NE,45,1.3,3.6,89,0.00,,,0.00,WUHU216HW,2013-05-27 12:39:00,
2013-05-27 05:44:00,51.7,48.5,30.09,East,90,1.8,3.1,89,0.00,,,0.00,WUHU216HW,2013-05-27 12:44:00,
2013-05-27 05:49:00,51.8,48.7,30.09,East,90,2.5,3.1,89,0.00,,,0.00,WUHU216HW,2013-05-27 12:49:00,
2013-05-27 05:54:00,51.8,48.7,30.09,NE,45,4.0,4.0,89,0.00,,,0.00,WUHU216HW,2013-05-27 12:54:00,
2013-05-27 05:59:00,52.0,49.1,30.09,NE,45,2.0,4.0,90,0.00,,,0.00,WUHU216HW,2013-05-27 12:59:00,
2013-05-27 06:04:00,52.2,49.3,30.08,East,90,2.0,3.4,90,0.00,,,0.00,WUHU216HW,2013-05-27 13:04:00,
2013-05-27 06:09:00,52.4,49.5,30.08,ENE,68,1.8,2.5,90,0.00,,,0.00,WUHU216HW,2013-05-27 13:09:00,
2013-05-27 06:14:00,52.6,49.4,30.08,ENE,68,2.2,3.6,89,0.00,,,0.00,WUHU216HW,2013-05-27 13:14:00,
2013-05-27 06:19:00,52.7,49.6,30.08,ENE,68,1.8,3.6,89,0.00,,,0.00,WUHU216HW,2013-05-27 13:19:00,
2013-05-27 06:24:00,52.9,49.8,30.08,ENE,68,2.0,2.2,89,0.00,,,0.00,WUHU216HW,2013-05-27 13:24:00,
2013-05-27 06:29:00,52.9,49.8,30.08,ENE,68,1.3,2.5,89,0.00,,,0.00,WUHU216HW,2013-05-27 13:29:00,
2013-05-27 06:34:00,52.9,49.8,30.08,ENE,68,2.2,2.9,89,0.00,,,0.00,WUHU216HW,2013-05-27 13:34:00,
2013-05-27 06:39:00,52.9,49.8,30.07,NE,45,0.7,2.9,89,0.00,,,0.00,WUHU216HW,2013-05-27 13:39:00,
2013-05-27 06:44:00,52.9,49.8,30.08,East,90,1.1,1.6,89,0.00,,,0.00,WUHU216HW,2013-05-27 13:44:00,
2013-05-27 06:49:00,52.9,49.8,30.07,NE,45,1.1,2.0,89,0.00,,,0.00,WUHU216HW,2013-05-27 13:49:00,
2013-05-27 06:54:00,52.9,49.8,30.07,ENE,68,1.8,2.0,89,0.00,,,0.00,WUHU216HW,2013-05-27 13:54:00,
2013-05-27 06:59:00,53.1,50.0,30.07,NNE,23,2.9,2.9,89,0.00,,,0.00,WUHU216HW,2013-05-27 13:59:00,
2013-05-27 07:04:00,52.9,49.8,30.07,NNE,23,1.3,2.9,89,0.00,,,0.00,WUHU216HW,2013-05-27 14:04:00,
2013-05-27 07:09:00,53.1,50.0,30.06,NE,45,0.4,2.2,89,0.00,,,0.00,WUHU216HW,2013-05-27 14:09:00,
2013-05-27 07:14:00,53.6,50.5,30.06,East,90,0.2,1.8,89,0.00,,,0.00,WUHU216HW,2013-05-27 14:14:00,
2013-05-27 07:19:00,53.6,50.1,30.06,ESE,113,0.9,1.8,88,0.00,,,0.00,WUHU216HW,2013-05-27 14:19:00,
2013-05-27 07:24:00,54.0,50.5,30.06,East,90,0.9,1.6,88,0.00,,,0.00,WUHU216HW,2013-05-27 14:24:00,
2013-05-27 07:29:00,54.4,50.6,30.06,ENE,68,1.3,2.0,87,0.00,,,0.00,WUHU216HW,2013-05-27 14:29:00,
2013-05-27 07:34:00,54.7,50.6,30.06,SE,135,1.1,2.2,86,0.00,,,0.00,WUHU216HW,2013-05-27 14:34:00,
2013-05-27 07:39:00,55.1,51.0,30.05,East,90,0.7,2.2,86,0.00,,,0.00,WUHU216HW,2013-05-27 14:39:00,
2013-05-27 07:44:00,55.3,50.8,30.05,NE,45,0.9,2.0,85,0.00,,,0.00,WUHU216HW,2013-05-27 14:44:00,
2013-05-27 07:49:00,55.4,50.6,30.05,North,0,2.2,3.8,84,0.00,,,0.00,WUHU216HW,2013-05-27 14:49:00,
2013-05-27 07:54:00,55.6,50.8,30.05,NE,45,4.3,4.3,84,0.00,,,0.00,WUHU216HW,2013-05-27 14:54:00,
2013-05-27 07:59:00,55.8,50.9,30.05,NE,45,1.8,4.3,84,0.00,,,0.00,WUHU216HW,2013-05-27 14:59:00,
2013-05-27 08:04:00,55.8,50.9,30.05,North,0,3.1,4.0,84,0.00,,,0.00,WUHU216HW,2013-05-27 15:04:00,
2013-05-27 08:09:00,55.8,50.9,30.04,NE,45,1.3,4.0,84,0.00,,,0.00,WUHU216HW,2013-05-27 15:09:00,
2013-05-27 08:14:00,56.0,51.1,30.04,ESE,113,1.3,3.4,84,0.00,,,0.00,WUHU216HW,2013-05-27 15:14:00,
2013-05-27 08:19:00,56.2,51.3,30.04,NE,45,2.5,2.7,84,0.00,,,0.00,WUHU216HW,2013-05-27 15:19:00,
2013-05-27 08:24:00,56.5,51.7,30.04,NNE,23,0.7,3.4,84,0.00,,,0.00,WUHU216HW,2013-05-27 15:24:00,
2013-05-27 08:29:00,56.9,52.0,30.04,NNW,338,1.3,3.4,84,0.00,,,0.00,WUHU216HW,2013-05-27 15:29:00,
2013-05-27 08:34:00,57.1,52.2,30.04,North,0,1.8,2.5,84,0.00,,,0.00,WUHU216HW,2013-05-27 15:34:00,
2013-05-27 08:39:00,57.2,52.4,30.04,NNE,23,0.4,2.5,84,0.00,,,0.00,WUHU216HW,2013-05-27 15:39:00,
2013-05-27 08:44:00,57.6,52.7,30.04,North,0,2.0,2.2,84,0.00,,,0.00,WUHU216HW,2013-05-27 15:44:00,
2013-05-27 08:49:00,57.6,52.7,30.03,North,0,2.9,2.9,84,0.00,,,0.00,WUHU216HW,2013-05-27 15:49:00,
2013-05-27 08:54:00,57.8,52.9,30.03,North,0,1.1,2.9,84,0.00,,,0.00,WUHU216HW,2013-05-27 15:54:00,
2013-05-27 08:59:00,57.8,52.9,30.03,North,0,1.1,1.8,84,0.00,,,0.00,WUHU216HW,2013-05-27 15:59:00,
2013-05-27 09:04:00,57.8,52.7,30.03,NE,45,1.1,3.8,83,0.00,,,0.00,WUHU216HW,2013-05-27 16:04:00,
2013-05-27 09:09:00,58.0,52.8,30.03,NNE,23,1.8,3.8,83,0.00,,,0.00,WUHU216HW,2013-05-27 16:09:00,
2013-05-27 09:14:00,58.0,52.8,30.03,NNW,338,2.0,3.6,83,0.00,,,0.00,WUHU216HW,2013-05-27 16:14:00,
2013-05-27 09:19:00,58.1,52.7,30.02,North,0,3.6,3.6,82,0.00,,,0.00,WUHU216HW,2013-05-27 16:19:00,
2013-05-27 09:24:00,58.3,52.8,30.02,NNE,23,1.1,3.6,82,0.00,,,0.00,WUHU216HW,2013-05-27 16:24:00,
2013-05-27 09:29:00,58.7,53.2,30.02,NNE,23,1.1,3.1,82,0.00,,,0.00,WUHU216HW,2013-05-27 16:29:00,
2013-05-27 09:34:00,58.7,52.9,30.02,NNE,23,3.4,3.4,81,0.00,,,0.00,WUHU216HW,2013-05-27 16:34:00,
2013-05-27 09:39:00,59.0,53.3,30.01,North,0,3.1,3.4,81,0.00,,,0.00,WUHU216HW,2013-05-27 16:39:00,
2013-05-27 09:44:00,59.2,53.5,30.01,NW,315,2.2,3.4,81,0.00,,,0.00,WUHU216HW,2013-05-27 16:44:00,
2013-05-27 09:49:00,59.4,53.7,30.01,SE,135,1.1,2.2,81,0.00,,,0.00,WUHU216HW,2013-05-27 16:49:00,
2013-05-27 09:54:00,59.4,52.9,30.01,NE,45,0.0,2.2,79,0.00,,,0.00,WUHU216HW,2013-05-27 16:54:00,
2013-05-27 09:59:00,59.6,53.5,30.01,WNW,293,1.1,1.8,80,0.00,,,0.00,WUHU216HW,2013-05-27 16:59:00,
2013-05-27 10:04:00,59.9,53.8,30.01,NNE,23,1.6,1.6,80,0.00,,,0.00,WUHU216HW,2013-05-27 17:04:00,
2013-05-27 10:09:00,60.1,53.6,30.01,NE,45,0.4,2.7,79,0.00,,,0.00,WUHU216HW,2013-05-27 17:09:00,
2013-05-27 10:14:00,60.1,53.3,30.01,NE,45,2.0,2.7,78,0.00,,,0.00,WUHU216HW,2013-05-27 17:14:00,
2013-05-27 10:19:00,60.1,53.3,30.00,SE,135,0.9,2.5,78,0.00,,,0.00,WUHU216HW,2013-05-27 17:19:00,
2013-05-27 10:24:00,60.5,53.6,30.00,ENE,68,0.4,1.6,78,0.00,,,0.00,WUHU216HW,2013-05-27 17:24:00,
2013-05-27 10:29:00,60.7,53.5,30.00,North,0,1.8,2.9,77,0.00,,,0.00,WUHU216HW,2013-05-27 17:29:00,
2013-05-27 10:34:00,60.7,53.1,29.99,North,0,1.3,2.9,76,0.00,,,0.00,WUHU216HW,2013-05-27 17:34:00,
2013-05-27 10:39:00,60.7,53.5,29.99,North,0,1.8,2.5,77,0.00,,,0.00,WUHU216HW,2013-05-27 17:39:00,
2013-05-27 10:44:00,60.7,53.5,29.99,North,0,1.6,3.8,77,0.00,,,0.00,WUHU216HW,2013-05-27 17:44:00,
2013-05-27 10:49:00,60.8,53.6,29.99,NNE,23,2.0,3.8,77,0.00,,,0.00,WUHU216HW,2013-05-27 17:49:00,
2013-05-27 10:54:00,60.8,53.6,29.99,NNE,23,1.1,3.8,77,0.00,,,0.00,WUHU216HW,2013-05-27 17:54:00,
2013-05-27 10:59:00,61.0,54.2,29.99,NW,315,0.4,3.8,78,0.00,,,0.00,WUHU216HW,2013-05-27 17:59:00,
2013-05-27 11:04:00,61.2,54.0,29.99,NE,45,1.1,2.2,77,0.00,,,0.00,WUHU216HW,2013-05-27 18:04:00,
2013-05-27 11:09:00,61.6,54.3,29.99,SW,225,0.7,1.8,77,0.00,,,0.00,WUHU216HW,2013-05-27 18:09:00,
2013-05-27 11:14:00,61.7,54.8,29.99,SE,135,0.9,1.8,78,0.00,,,0.00,WUHU216HW,2013-05-27 18:14:00,
2013-05-27 11:19:00,62.3,54.9,29.98,ESE,113,0.0,2.2,77,0.00,,,0.00,WUHU216HW,2013-05-27 18:19:00,
2013-05-27 11:24:00,62.3,54.5,29.98,NNE,23,0.4,2.2,76,0.00,,,0.00,WUHU216HW,2013-05-27 18:24:00,
2013-05-27 11:29:00,62.3,54.5,29.98,East,90,1.6,1.8,76,0.00,,,0.00,WUHU216HW,2013-05-27 18:29:00,
2013-05-27 11:34:00,62.3,54.5,29.98,NNW,338,0.7,2.5,76,0.00,,,0.00,WUHU216HW,2013-05-27 18:34:00,
2013-05-27 11:39:00,62.3,54.5,29.98,SW,225,2.0,2.5,76,0.00,,,0.00,WUHU216HW,2013-05-27 18:39:00,
2013-05-27 11:44:00,62.3,54.9,29.98,SW,225,1.8,2.5,77,0.00,,,0.00,WUHU216HW,2013-05-27 18:44:00,
2013-05-27 11:49:00,62.1,54.8,29.98,SW,225,3.1,3.1,77,0.01,,,0.01,WUHU216HW,2013-05-27 18:49:00,
2013-05-27 11:54:00,61.9,54.6,29.98,SW,225,0.7,3.1,77,0.01,,,0.01,WUHU216HW,2013-05-27 18:54:00,
2013-05-27 11:59:00,61.7,54.5,29.98,WSW,248,1.1,3.1,77,0.01,,,0.01,WUHU216HW,2013-05-27 18:59:00,
2013-05-27 12:04:00,61.7,54.5,29.98,SW,225,1.8,2.7,77,0.01,,,0.01,WUHU216HW,2013-05-27 19:04:00,
2013-05-27 12:09:00,61.6,54.6,29.98,WSW,248,1.3,2.7,78,0.02,,,0.02,WUHU216HW,2013-05-27 19:09:00,
2013-05-27 12:14:00,61.7,54.8,29.97,SW,225,0.9,1.8,78,0.02,,,0.02,WUHU216HW,2013-05-27 19:14:00,
2013-05-27 12:19:00,61.9,55.0,29.98,ENE,68,0.7,1.3,78,0.02,,,0.02,WUHU216HW,2013-05-27 19:19:00,
2013-05-27 12:24:00,62.3,54.9,29.98,SSW,203,2.0,2.0,77,0.02,,,0.02,WUHU216HW,2013-05-27 19:24:00,
2013-05-27 12:29:00,61.9,54.6,29.97,SSW,203,0.4,2.2,77,0.02,,,0.02,WUHU216HW,2013-05-27 19:29:00,
2013-05-27 12:34:00,61.9,54.6,29.97,NNE,23,0.7,2.2,77,0.02,,,0.02,WUHU216HW,2013-05-27 19:34:00,
2013-05-27 12:39:00,61.4,53.7,29.97,East,90,1.6,2.5,76,0.03,,,0.03,WUHU216HW,2013-05-27 19:39:00,
2013-05-27 12:44:00,61.2,53.7,29.97,SE,135,1.1,2.5,76,0.02,,,0.03,WUHU216HW,2013-05-27 19:44:00,
2013-05-27 12:49:00,61.2,54.0,29.97,SE,135,1.8,3.1,77,0.02,,,0.03,WUHU216HW,2013-05-27 19:49:00,
2013-05-27 12:54:00,61.0,54.2,29.97,SE,135,0.4,3.1,78,0.02,,,0.03,WUHU216HW,2013-05-27 19:54:00,
2013-05-27 12:59:00,61.2,54.4,29.97,SE,135,0.7,2.0,78,0.03,,,0.04,WUHU216HW,2013-05-27 19:59:00,
2013-05-27 13:04:00,60.8,54.0,29.97,SE,135,2.5,2.5,78,0.02,,,0.04,WUHU216HW,2013-05-27 20:04:00,
2013-05-27 13:09:00,60.8,54.4,29.96,ENE,68,0.7,2.7,79,0.02,,,0.04,WUHU216HW,2013-05-27 20:09:00,
2013-05-27 13:14:00,61.0,54.6,29.96,ENE,68,1.8,2.7,79,0.02,,,0.04,WUHU216HW,2013-05-27 20:14:00,
2013-05-27 13:19:00,61.2,54.7,29.96,ENE,68,4.9,4.9,79,0.02,,,0.04,WUHU216HW,2013-05-27 20:19:00,
2013-05-27 13:24:00,61.0,54.6,29.96,SSE,158,2.0,4.9,79,0.02,,,0.04,WUHU216HW,2013-05-27 20:24:00,
2013-05-27 13:29:00,60.8,54.4,29.96,ESE,113,0.7,4.7,79,0.02,,,0.04,WUHU216HW,2013-05-27 20:29:00,
2013-05-27 13:34:00,60.7,54.2,29.96,SSE,158,2.5,4.7,79,0.02,,,0.04,WUHU216HW,2013-05-27 20:34:00,
2013-05-27 13:39:00,60.3,53.5,29.96,ESE,113,4.0,4.3,78,0.01,,,0.04,WUHU216HW,2013-05-27 20:39:00,
2013-05-27 13:44:00,60.1,53.3,29.96,East,90,1.1,4.3,78,0.01,,,0.04,WUHU216HW,2013-05-27 20:44:00,
2013-05-27 13:49:00,60.1,53.6,29.96,SE,135,0.9,4.3,79,0.01,,,0.04,WUHU216HW,2013-05-27 20:49:00,
2013-05-27 13:54:00,60.1,53.6,29.96,SE,135,3.8,3.8,79,0.01,,,0.04,WUHU216HW,2013-05-27 20:54:00,
2013-05-27 13:59:00,60.1,53.3,29.96,ESE,113,0.7,3.8,78,0.00,,,0.04,WUHU216HW,2013-05-27 20:59:00,
2013-05-27 14:04:00,60.3,53.5,29.96,SE,135,2.0,4.5,78,0.00,,,0.04,WUHU216HW,2013-05-27 21:04:00,
2013-05-27 14:09:00,60.3,52.7,29.96,SE,135,7.6,7.6,76,0.00,,,0.04,WUHU216HW,2013-05-27 21:09:00,
2013-05-27 14:14:00,60.1,52.9,29.95,SE,135,6.3,7.6,77,0.01,,,0.04,WUHU216HW,2013-05-27 21:14:00,
2013-05-27 14:19:00,60.1,53.3,29.95,SSE,158,2.5,7.2,78,0.01,,,0.05,WUHU216HW,2013-05-27 21:19:00,
2013-05-27 14:24:00,60.1,52.9,29.95,East,90,1.8,5.4,77,0.01,,,0.05,WUHU216HW,2013-05-27 21:24:00,
2013-05-27 14:29:00,60.1,52.6,29.95,SE,135,4.9,6.9,76,0.01,,,0.05,WUHU216HW,2013-05-27 21:29:00,
2013-05-27 14:34:00,60.1,52.9,29.95,SSE,158,4.7,6.9,77,0.01,,,0.05,WUHU216HW,2013-05-27 21:34:00,
2013-05-27 14:39:00,60.3,53.5,29.95,NE,45,0.7,4.7,78,0.01,,,0.05,WUHU216HW,2013-05-27 21:39:00,
2013-05-27 14:44:00,60.5,53.3,29.96,SE,135,3.8,6.9,77,0.01,,,0.05,WUHU216HW,2013-05-27 21:44:00,
2013-05-27 14:49:00,60.7,53.8,29.95,SE,135,2.5,6.9,78,0.01,,,0.05,WUHU216HW,2013-05-27 21:49:00,
2013-05-27 14:54:00,60.7,53.8,29.95,ENE,68,1.6,4.0,78,0.01,,,0.05,WUHU216HW,2013-05-27 21:54:00,
2013-05-27 14:59:00,60.7,53.1,29.95,SE,135,5.6,10.1,76,0.01,,,0.05,WUHU216HW,2013-05-27 21:59:00,
2013-05-27 15:04:00,60.5,53.3,29.95,ESE,113,3.8,10.1,77,0.01,,,0.05,WUHU216HW,2013-05-27 22:04:00,
2013-05-27 15:09:00,60.3,53.1,29.95,North,0,6.3,6.7,77,0.01,,,0.05,WUHU216HW,2013-05-27 22:09:00,
2013-05-27 15:14:00,60.1,53.3,29.95,SE,135,1.6,7.6,78,0.00,,,0.05,WUHU216HW,2013-05-27 22:14:00,
2013-05-27 15:19:00,60.1,53.3,29.95,SSE,158,3.6,7.6,78,0.00,,,0.05,WUHU216HW,2013-05-27 22:19:00,
2013-05-27 15:24:00,59.9,53.1,29.95,ESE,113,3.4,4.9,78,0.00,,,0.05,WUHU216HW,2013-05-27 22:24:00,
2013-05-27 15:29:00,59.8,52.9,29.95,SE,135,1.3,5.4,78,0.01,,,0.06,WUHU216HW,2013-05-27 22:29:00,
2013-05-27 15:34:00,59.6,52.7,29.95,ESE,113,2.5,6.9,78,0.01,,,0.06,WUHU216HW,2013-05-27 22:34:00,
2013-05-27 15:39:00,59.4,52.9,29.95,SE,135,2.9,6.9,79,0.02,,,0.06,WUHU216HW,2013-05-27 22:39:00,
2013-05-27 15:44:00,59.2,52.7,29.95,ESE,113,1.6,6.3,79,0.02,,,0.07,WUHU216HW,2013-05-27 22:44:00,
2013-05-27 15:49:00,59.0,52.9,29.95,North,0,2.2,6.3,80,0.03,,,0.08,WUHU216HW,2013-05-27 22:49:00,
2013-05-27 15:54:00,58.9,52.7,29.96,SE,135,2.2,4.9,80,0.03,,,0.08,WUHU216HW,2013-05-27 22:54:00,
2013-05-27 15:59:00,58.7,52.6,29.95,SSE,158,1.1,5.4,80,0.04,,,0.09,WUHU216HW,2013-05-27 22:59:00,
2013-05-27 16:04:00,58.5,52.4,29.96,NE,45,6.0,6.0,80,0.04,,,0.09,WUHU216HW,2013-05-27 23:04:00,
2013-05-27 16:09:00,58.3,52.2,29.96,ENE,68,2.0,6.0,80,0.04,,,0.09,WUHU216HW,2013-05-27 23:09:00,
2013-05-27 16:14:00,58.1,52.7,29.96,South,180,2.0,4.3,82,0.05,,,0.10,WUHU216HW,2013-05-27 23:14:00,
2013-05-27 16:19:00,58.0,52.2,29.96,NE,45,0.7,2.7,81,0.05,,,0.10,WUHU216HW,2013-05-27 23:19:00,
2013-05-27 16:24:00,58.0,52.5,29.95,NNE,23,2.2,3.8,82,0.05,,,0.11,WUHU216HW,2013-05-27 23:24:00,
2013-05-27 16:29:00,58.1,53.0,29.95,North,0,3.4,3.8,83,0.05,,,0.11,WUHU216HW,2013-05-27 23:29:00,
2013-05-27 16:34:00,58.3,53.2,29.95,SE,135,0.7,3.4,83,0.05,,,0.11,WUHU216HW,2013-05-27 23:34:00,
2013-05-27 16:39:00,58.3,53.2,29.95,ESE,113,0.4,2.7,83,0.04,,,0.11,WUHU216HW,2013-05-27 23:39:00,
2013-05-27 16:44:00,58.7,53.6,29.95,ENE,68,1.3,2.2,83,0.03,,,0.11,WUHU216HW,2013-05-27 23:44:00,
2013-05-27 16:49:00,58.7,53.6,29.94,ENE,68,1.8,2.9,83,0.03,,,0.11,WUHU216HW,2013-05-27 23:49:00,
2013-05-27 16:54:00,58.7,53.6,29.95,NNE,23,1.6,2.9,83,0.03,,,0.11,WUHU216HW,2013-05-27 23:54:00,
2013-05-27 16:59:00,58.9,53.7,29.95,North,0,4.0,4.0,83,0.02,,,0.11,WUHU216HW,2013-05-27 23:59:00,
2013-05-27 17:04:00,58.7,53.6,29.95,East,90,3.1,4.0,83,0.02,,,0.11,WUHU216HW,2013-05-28 00:04:00,
2013-05-27 17:09:00,58.7,53.6,29.95,NNE,23,6.0,6.0,83,0.01,,,0.11,WUHU216HW,2013-05-28 00:09:00,
2013-05-27 17:14:00,58.7,53.2,29.95,ENE,68,1.8,6.0,82,0.01,,,0.11,WUHU216HW,2013-05-28 00:14:00,
2013-05-27 17:19:00,58.7,53.2,29.95,NNE,23,3.4,4.3,82,0.00,,,0.11,WUHU216HW,2013-05-28 00:19:00,
2013-05-27 17:24:00,58.9,53.4,29.95,NNW,338,1.8,3.6,82,0.00,,,0.11,WUHU216HW,2013-05-28 00:24:00,
2013-05-27 17:29:00,58.9,53.4,29.95,WNW,293,2.0,3.6,82,0.00,,,0.11,WUHU216HW,2013-05-28 00:29:00,
2013-05-27 17:34:00,58.9,53.4,29.95,NNE,23,1.6,2.9,82,0.00,,,0.11,WUHU216HW,2013-05-28 00:34:00,
2013-05-27 17:39:00,58.9,53.4,29.95,North,0,1.1,2.9,82,0.00,,,0.11,WUHU216HW,2013-05-28 00:39:00,
2013-05-27 17:44:00,58.7,53.6,29.95,NNW,338,1.3,2.5,83,0.00,,,0.11,WUHU216HW,2013-05-28 00:44:00,
2013-05-27 17:49:00,58.7,53.6,29.95,North,0,1.8,2.9,83,0.00,,,0.11,WUHU216HW,2013-05-28 00:49:00,
2013-05-27 17:54:00,58.7,53.6,29.95,NNE,23,1.1,3.1,83,0.00,,,0.11,WUHU216HW,2013-05-28 00:54:00,
2013-05-27 17:59:00,59.0,54.2,29.95,NNW,338,1.1,3.1,84,0.00,,,0.11,WUHU216HW,2013-05-28 00:59:00,
2013-05-27 18:04:00,59.2,54.4,29.95,North,0,1.6,2.0,84,0.00,,,0.11,WUHU216HW,2013-05-28 01:04:00,
2013-05-27 18:09:00,59.4,54.5,29.95,NNE,23,0.2,2.0,84,0.00,,,0.11,WUHU216HW,2013-05-28 01:09:00,
2013-05-27 18:14:00,59.2,54.1,29.95,North,0,1.1,2.0,83,0.00,,,0.11,WUHU216HW,2013-05-28 01:14:00,
2013-05-27 18:19:00,59.4,54.3,29.95,NNW,338,0.7,1.1,83,0.00,,,0.11,WUHU216HW,2013-05-28 01:19:00,
2013-05-27 18:24:00,59.0,53.9,29.95,NNE,23,1.8,1.8,83,0.02,,,0.12,WUHU216HW,2013-05-28 01:24:00,
2013-05-27 18:29:00,58.9,54.4,29.95,ENE,68,1.3,3.4,85,0.03,,,0.14,WUHU216HW,2013-05-28 01:29:00,
2013-05-27 18:34:00,58.7,54.2,29.95,North,0,0.7,6.3,85,0.03,,,0.14,WUHU216HW,2013-05-28 01:34:00,
2013-05-27 18:39:00,58.5,54.0,29.95,NNW,338,1.3,6.3,85,0.03,,,0.14,WUHU216HW,2013-05-28 01:39:00,
2013-05-27 18:44:00,58.3,53.8,29.95,NNE,23,3.4,3.4,85,0.04,,,0.15,WUHU216HW,2013-05-28 01:44:00,
2013-05-27 18:49:00,58.1,53.6,29.95,NNE,23,2.5,3.4,85,0.05,,,0.16,WUHU216HW,2013-05-28 01:49:00,
2013-05-27 18:54:00,58.0,53.8,29.95,NNE,23,0.7,2.5,86,0.05,,,0.16,WUHU216HW,2013-05-28 01:54:00,
2013-05-27 18:59:00,58.0,53.8,29.95,NNW,338,0.0,2.2,86,0.06,,,0.17,WUHU216HW,2013-05-28 01:59:00,
2013-05-27 19:04:00,58.0,54.1,29.95,NNE,23,1.3,1.3,87,0.06,,,0.17,WUHU216HW,2013-05-28 02:04:00,
2013-05-27 19:09:00,57.8,53.7,29.95,ESE,113,2.7,2.7,86,0.07,,,0.18,WUHU216HW,2013-05-28 02:09:00,
2013-05-27 19:14:00,57.6,53.5,29.95,North,0,1.8,3.8,86,0.07,,,0.18,WUHU216HW,2013-05-28 02:14:00,
2013-05-27 19:19:00,57.6,53.7,29.95,North,0,2.2,4.7,87,0.07,,,0.18,WUHU216HW,2013-05-28 02:19:00,
2013-05-27 19:24:00,57.6,53.7,29.95,North,0,4.3,4.7,87,0.04,,,0.18,WUHU216HW,2013-05-28 02:24:00,
2013-05-27 19:29:00,57.6,53.7,29.95,North,0,2.0,4.7,87,0.04,,,0.18,WUHU216HW,2013-05-28 02:29:00,
2013-05-27 19:34:00,57.6,53.7,29.95,North,0,4.3,4.7,87,0.04,,,0.18,WUHU216HW,2013-05-28 02:34:00,
2013-05-27 19:39:00,57.4,53.3,29.95,ENE,68,1.3,4.3,86,0.04,,,0.18,WUHU216HW,2013-05-28 02:39:00,
2013-05-27 19:44:00,57.4,53.3,29.95,NE,45,1.6,4.0,86,0.03,,,0.19,WUHU216HW,2013-05-28 02:44:00,
2013-05-27 19:49:00,57.2,53.4,29.95,NE,45,4.7,4.7,87,0.03,,,0.19,WUHU216HW,2013-05-28 02:49:00,
2013-05-27 19:54:00,57.2,53.4,29.95,NE,45,1.1,4.7,87,0.03,,,0.19,WUHU216HW,2013-05-28 02:54:00,
2013-05-27 19:59:00,57.1,53.2,29.95,NE,45,1.8,4.0,87,0.02,,,0.19,WUHU216HW,2013-05-28 02:59:00,
2013-05-27 20:04:00,57.1,53.2,29.95,NE,45,3.4,3.8,87,0.01,,,0.19,WUHU216HW,2013-05-28 03:04:00,
2013-05-27 20:09:00,56.9,53.0,29.95,North,0,2.9,3.8,87,0.01,,,0.19,WUHU216HW,2013-05-28 03:09:00,
2013-05-27 20:14:00,56.5,52.7,29.95,North,0,3.6,3.6,87,0.01,,,0.19,WUHU216HW,2013-05-28 03:14:00,
2013-05-27 20:19:00,56.5,52.7,29.95,NNE,23,3.8,3.8,87,0.01,,,0.19,WUHU216HW,2013-05-28 03:19:00,
2013-05-27 20:24:00,56.5,53.0,29.95,North,0,1.8,3.8,88,0.01,,,0.19,WUHU216HW,2013-05-28 03:24:00,
2013-05-27 20:29:00,56.3,52.5,29.95,NE,45,0.0,2.9,87,0.01,,,0.19,WUHU216HW,2013-05-28 03:29:00,
2013-05-27 20:34:00,56.3,52.8,29.95,North,0,3.4,3.4,88,0.01,,,0.19,WUHU216HW,2013-05-28 03:34:00,
2013-05-27 20:39:00,56.2,52.7,29.96,NNE,23,0.7,3.4,88,0.01,,,0.19,WUHU216HW,2013-05-28 03:39:00,
2013-05-27 20:44:00,56.2,52.7,29.96,NE,45,0.4,2.5,88,0.00,,,0.19,WUHU216HW,2013-05-28 03:44:00,
2013-05-27 20:49:00,56.2,52.7,29.96,NE,45,1.3,1.3,88,0.00,,,0.19,WUHU216HW,2013-05-28 03:49:00,
2013-05-27 20:54:00,56.2,52.7,29.96,ENE,68,1.3,2.5,88,0.00,,,0.19,WUHU216HW,2013-05-28 03:54:00,
2013-05-27 20:59:00,56.0,52.5,29.96,NE,45,1.3,2.7,88,0.00,,,0.19,WUHU216HW,2013-05-28 03:59:00,
2013-05-27 21:01:00,56.0,52.5,29.96,NNE,23,0.4,2.7,88,0.00,,,0.19,WUHU216HW,2013-05-28 04:01:00,
2013-05-27 21:06:00,55.8,52.6,29.96,NNE,23,1.8,2.7,89,0.00,,,0.19,WUHU216HW,2013-05-28 04:06:00,
2013-05-27 21:11:00,55.8,52.6,29.96,North,0,1.8,2.2,89,0.00,,,0.19,WUHU216HW,2013-05-28 04:11:00,
2013-05-27 21:16:00,55.8,52.6,29.96,NNE,23,0.4,2.0,89,0.00,,,0.19,WUHU216HW,2013-05-28 04:16:00,
2013-05-27 21:21:00,55.8,52.6,29.96,NE,45,2.2,2.2,89,0.00,,,0.19,WUHU216HW,2013-05-28 04:21:00,
2013-05-27 21:26:00,55.8,52.6,29.96,NE,45,0.4,2.2,89,0.00,,,0.19,WUHU216HW,2013-05-28 04:26:00,
2013-05-27 21:31:00,55.6,52.4,29.96,SE,135,2.0,2.0,89,0.00,,,0.19,WUHU216HW,2013-05-28 04:31:00,
2013-05-27 21:36:00,55.8,52.6,29.96,East,90,1.1,2.2,89,0.00,,,0.19,WUHU216HW,2013-05-28 04:36:00,
2013-05-27 21:41:00,55.8,52.6,29.97,East,90,0.7,2.2,89,0.00,,,0.19,WUHU216HW,2013-05-28 04:41:00,
2013-05-27 21:46:00,55.6,52.4,29.97,ESE,113,1.8,1.8,89,0.00,,,0.19,WUHU216HW,2013-05-28 04:46:00,
2013-05-27 21:51:00,55.6,52.4,29.97,East,90,1.3,2.0,89,0.00,,,0.19,WUHU216HW,2013-05-28 04:51:00,
2013-05-27 21:56:00,55.6,52.4,29.97,SSE,158,2.2,2.2,89,0.00,,,0.19,WUHU216HW,2013-05-28 04:56:00,
2013-05-27 22:01:00,55.6,52.4,29.98,SSE,158,0.7,2.2,89,0.00,,,0.19,WUHU216HW,2013-05-28 05:01:00,
2013-05-27 22:06:00,55.6,52.4,29.98,SE,135,1.8,2.5,89,0.00,,,0.19,WUHU216HW,2013-05-28 05:06:00,
2013-05-27 22:11:00,55.8,52.3,29.98,SSE,158,1.1,4.5,88,0.00,,,0.19,WUHU216HW,2013-05-28 05:11:00,
2013-05-27 22:16:00,55.8,51.9,29.98,ESE,113,3.8,4.5,87,0.00,,,0.19,WUHU216HW,2013-05-28 05:16:00,
2013-05-27 22:21:00,56.0,51.9,29.98,SE,135,2.0,4.7,86,0.00,,,0.19,WUHU216HW,2013-05-28 05:21:00,
2013-05-27 22:26:00,56.2,52.0,29.98,SE,135,2.2,4.7,86,0.00,,,0.19,WUHU216HW,2013-05-28 05:26:00,
2013-05-27 22:31:00,56.3,51.8,29.98,East,90,1.8,3.4,85,0.00,,,0.19,WUHU216HW,2013-05-28 05:31:00,
2013-05-27 22:36:00,56.2,51.7,29.98,ESE,113,2.9,3.4,85,0.00,,,0.19,WUHU216HW,2013-05-28 05:36:00,
2013-05-27 22:41:00,56.0,51.9,29.98,ESE,113,1.6,2.9,86,0.00,,,0.19,WUHU216HW,2013-05-28 05:41:00,
2013-05-27 22:46:00,56.0,51.9,29.98,SE,135,2.0,4.0,86,0.00,,,0.19,WUHU216HW,2013-05-28 05:46:00,
2013-05-27 22:51:00,56.0,51.5,29.98,SE,135,2.7,4.0,85,0.00,,,0.19,WUHU216HW,2013-05-28 05:51:00,
2013-05-27 22:56:00,56.0,51.9,29.98,SE,135,2.5,3.8,86,0.00,,,0.19,WUHU216HW,2013-05-28 05:56:00,
2013-05-27 23:01:00,56.0,51.5,29.98,SE,135,4.3,6.3,85,0.00,,,0.19,WUHU216HW,2013-05-28 06:01:00,
2013-05-27 23:06:00,56.0,51.5,29.98,SE,135,1.8,6.3,85,0.00,,,0.19,WUHU216HW,2013-05-28 06:06:00,
2013-05-27 23:11:00,56.2,51.7,29.98,South,180,3.1,4.0,85,0.00,,,0.19,WUHU216HW,2013-05-28 06:11:00,
2013-05-27 23:16:00,56.2,51.0,29.98,SE,135,4.7,4.7,83,0.00,,,0.19,WUHU216HW,2013-05-28 06:16:00,
2013-05-27 23:21:00,56.3,51.2,29.98,SE,135,2.5,6.9,83,0.00,,,0.19,WUHU216HW,2013-05-28 06:21:00,
2013-05-27 23:26:00,56.5,51.4,29.98,ESE,113,1.8,6.9,83,0.00,,,0.19,WUHU216HW,2013-05-28 06:26:00,
2013-05-27 23:31:00,56.3,51.2,29.98,ESE,113,1.8,3.6,83,0.00,,,0.19,WUHU216HW,2013-05-28 06:31:00,
2013-05-27 23:36:00,56.2,51.0,29.98,SE,135,0.9,2.9,83,0.00,,,0.19,WUHU216HW,2013-05-28 06:36:00,
2013-05-27 23:41:00,56.0,51.1,29.98,ENE,68,1.6,2.7,84,0.00,,,0.19,WUHU216HW,2013-05-28 06:41:00,
2013-05-27 23:51:00,55.6,50.8,29.98,SE,135,1.8,1.8,84,0.00,,,0.19,WUHU216HW,2013-05-28 06:51:00,
2013-05-27 23:56:00,55.8,51.3,29.98,SSE,158,1.6,2.9,85,0.00,,,0.19,WUHU216HW,2013-05-28 06:56:00,